createdAt,value
2019-03-26T00:02:27.702Z,2.85
2019-03-26T00:07:33.212Z,2.76
2019-03-26T00:12:38.484Z,2.69
2019-03-26T00:17:43.934Z,2.69
2019-03-26T00:22:48.986Z,2.64
2019-03-26T00:27:54.158Z,2.53
2019-03-26T00:32:59.304Z,2.48
2019-03-26T00:38:05.164Z,2.37
2019-03-26T00:43:10.560Z,2.35
2019-03-26T00:48:16.087Z,2.31
2019-03-26T00:53:21.469Z,2.34
2019-03-26T00:58:26.905Z,2.35
2019-03-26T01:03:32.267Z,2.31
2019-03-26T01:08:37.536Z,2.32
2019-03-26T01:13:43.089Z,2.25
2019-03-26T01:18:48.241Z,2.12
2019-03-26T01:23:53.601Z,2.06
2019-03-26T01:28:59.159Z,2.00
2019-03-26T01:34:04.826Z,1.94
2019-03-26T01:39:10.284Z,2.00
2019-03-26T01:44:15.655Z,2.02
2019-03-26T01:49:21.014Z,1.99
2019-03-26T01:54:26.262Z,1.92
2019-03-26T01:59:31.525Z,1.98
2019-03-26T02:04:37.084Z,1.98
2019-03-26T02:09:42.444Z,1.95
2019-03-26T02:14:47.610Z,1.95
2019-03-26T02:19:52.999Z,1.91
2019-03-26T02:24:58.318Z,1.89
2019-03-26T02:30:03.570Z,1.86
2019-03-26T02:35:18.388Z,1.87
2019-03-26T02:40:17.781Z,1.86
2019-03-26T02:45:23.150Z,1.93
2019-03-26T02:50:28.530Z,1.90
2019-03-26T02:55:33.750Z,2.01
2019-03-26T03:00:39.212Z,1.85
2019-03-26T03:05:44.463Z,1.75
2019-03-26T03:10:49.828Z,1.69
2019-03-26T03:15:55.208Z,1.65
2019-03-26T03:21:00.385Z,1.60
2019-03-26T03:26:05.583Z,1.55
2019-03-26T03:31:10.759Z,1.56
2019-03-26T03:36:15.818Z,1.59
2019-03-26T03:41:21.154Z,1.66
2019-03-26T03:46:26.416Z,1.75
2019-03-26T03:51:34.342Z,1.87
2019-03-26T03:56:41.222Z,1.90
2019-03-26T04:01:46.587Z,1.83
2019-03-26T04:06:51.864Z,1.88
2019-03-26T04:11:57.346Z,1.96
2019-03-26T04:17:02.666Z,1.97
2019-03-26T04:22:08.151Z,2.09
2019-03-26T04:27:13.401Z,2.21
2019-03-26T04:32:19.692Z,2.33
2019-03-26T04:37:24.893Z,2.53
2019-03-26T04:42:30.286Z,2.72
2019-03-26T04:47:35.692Z,2.79
2019-03-26T04:52:40.985Z,2.84
2019-03-26T04:57:46.362Z,2.98
2019-03-26T05:02:51.708Z,3.03
2019-03-26T05:07:56.925Z,3.20
2019-03-26T05:13:02.306Z,3.30
2019-03-26T05:18:07.600Z,3.46
2019-03-26T05:23:12.940Z,3.64
2019-03-26T05:28:18.252Z,3.75
2019-03-26T05:33:23.362Z,3.95
2019-03-26T05:38:28.792Z,4.03
2019-03-26T05:43:34.070Z,4.17
2019-03-26T05:48:39.150Z,4.36
2019-03-26T05:53:44.530Z,4.43
2019-03-26T05:58:49.944Z,4.52
2019-03-26T06:03:55.093Z,4.63
2019-03-26T06:09:00.456Z,4.77
2019-03-26T06:14:07.464Z,4.83
2019-03-26T06:19:13.013Z,4.82
2019-03-26T06:24:18.237Z,4.90
2019-03-26T06:29:23.529Z,4.96
2019-03-26T06:34:28.788Z,5.01
2019-03-26T06:39:33.867Z,5.08
2019-03-26T06:44:39.173Z,5.10
2019-03-26T06:49:44.555Z,5.07
2019-03-26T06:54:51.676Z,5.11
2019-03-26T06:59:56.712Z,5.15
2019-03-26T07:05:01.861Z,5.27
2019-03-26T07:10:08.508Z,5.35
2019-03-26T07:15:13.910Z,5.38
2019-03-26T07:20:19.163Z,5.49
2019-03-26T07:25:24.632Z,5.58
2019-03-26T07:30:38.585Z,5.44
2019-03-26T07:35:43.965Z,5.31
2019-03-26T07:40:49.299Z,5.36
2019-03-26T07:45:54.671Z,5.39
2019-03-26T07:50:59.931Z,5.16
2019-03-26T07:56:05.364Z,4.68
2019-03-26T08:01:10.757Z,4.60
2019-03-26T08:06:16.101Z,4.56
2019-03-26T08:11:21.351Z,4.65
2019-03-26T08:16:26.412Z,4.66
2019-03-26T08:21:31.519Z,4.56
2019-03-26T08:26:36.922Z,4.76
2019-03-26T08:31:42.282Z,5.07
2019-03-26T08:36:47.362Z,5.12
2019-03-26T08:41:52.774Z,4.90
2019-03-26T08:46:58.364Z,5.04
2019-03-26T08:52:03.635Z,4.98
2019-03-26T08:57:09.061Z,4.99
2019-03-26T09:02:14.433Z,5.04
2019-03-26T09:07:19.794Z,5.16
2019-03-26T09:12:25.154Z,5.16
2019-03-26T09:17:30.518Z,5.45
2019-03-26T09:22:35.673Z,5.82
2019-03-26T09:27:41.124Z,5.92
2019-03-26T09:32:46.581Z,6.07
2019-03-26T09:37:52.039Z,6.28
2019-03-26T09:42:57.411Z,6.40
2019-03-26T09:48:02.673Z,5.83
2019-03-26T09:53:08.012Z,5.83
2019-03-26T09:58:13.161Z,4.95
2019-03-26T10:03:18.637Z,4.75
2019-03-26T10:08:23.998Z,5.00
2019-03-26T10:13:29.242Z,5.33
2019-03-26T10:18:34.505Z,5.67
2019-03-26T10:23:40.175Z,5.97
2019-03-26T10:28:45.432Z,6.34
2019-03-26T10:33:50.847Z,6.31
2019-03-26T10:39:05.561Z,6.73
2019-03-26T10:44:03.153Z,7.64
2019-03-26T10:49:08.616Z,7.42
2019-03-26T10:54:13.862Z,6.99
2019-03-26T10:59:20.427Z,6.67
2019-03-26T11:04:25.814Z,6.23
2019-03-26T11:09:30.998Z,5.69
2019-03-26T11:14:36.284Z,5.42
2019-03-26T11:19:41.676Z,5.64
2019-03-26T11:24:47.036Z,5.85
2019-03-26T11:29:52.585Z,5.72
2019-03-26T11:34:57.761Z,5.93
2019-03-26T11:40:03.051Z,5.97
2019-03-26T11:45:10.622Z,5.73
2019-03-26T11:50:16.709Z,5.62
2019-03-26T11:55:22.117Z,6.01
2019-03-26T12:00:31.710Z,5.93
2019-03-26T12:05:37.120Z,5.68
2019-03-26T12:10:42.550Z,5.68
2019-03-26T12:15:47.790Z,6.16
2019-03-26T12:20:54.181Z,6.38
2019-03-26T12:25:59.436Z,5.88
2019-03-26T12:31:05.002Z,6.27
2019-03-26T12:36:10.373Z,6.43
2019-03-26T12:41:15.614Z,5.96
2019-03-26T12:46:20.969Z,6.03
2019-03-26T12:51:26.337Z,6.38
2019-03-26T12:56:31.606Z,6.36
2019-03-26T13:01:37.050Z,6.64
2019-03-26T13:06:42.320Z,6.57
2019-03-26T13:11:47.659Z,6.76
2019-03-26T13:16:52.863Z,6.63
2019-03-26T13:21:58.183Z,6.69
2019-03-26T13:27:03.545Z,7.09
2019-03-26T13:32:08.956Z,7.05
2019-03-26T13:37:14.145Z,6.72
2019-03-26T13:42:19.606Z,7.14
2019-03-26T13:47:24.967Z,7.29
2019-03-26T13:52:30.225Z,7.11
2019-03-26T13:57:35.660Z,6.85
2019-03-26T14:02:41.219Z,7.30
2019-03-26T14:07:46.725Z,7.18
2019-03-26T14:12:53.088Z,8.07
2019-03-26T14:17:58.359Z,8.07
2019-03-26T14:23:04.725Z,9.28
2019-03-26T14:28:09.984Z,8.08
2019-03-26T14:33:15.650Z,6.90
2019-03-26T14:38:21.033Z,6.14
2019-03-26T14:43:26.388Z,5.84
2019-03-26T14:48:31.618Z,6.21
2019-03-26T14:53:36.856Z,6.59
2019-03-26T14:58:42.184Z,6.40
2019-03-26T15:03:47.587Z,8.14
2019-03-26T15:08:53.273Z,9.52
2019-03-26T15:13:58.551Z,8.81
2019-03-26T15:19:03.931Z,9.68
2019-03-26T15:24:09.456Z,9.47
2019-03-26T15:29:15.011Z,9.48
2019-03-26T15:34:20.373Z,9.37
2019-03-26T15:39:26.009Z,9.43
2019-03-26T15:44:31.583Z,8.34
2019-03-26T15:49:36.861Z,7.00
2019-03-26T15:54:42.059Z,5.64
2019-03-26T15:59:47.389Z,5.25
2019-03-26T16:04:53.659Z,4.94
2019-03-26T16:09:59.014Z,4.78
2019-03-26T16:15:07.340Z,4.78
2019-03-26T16:20:14.663Z,4.56
2019-03-26T16:25:20.200Z,4.68
2019-03-26T16:30:25.661Z,4.63
2019-03-26T16:35:30.921Z,4.58
2019-03-26T16:40:36.284Z,4.43
2019-03-26T16:45:41.638Z,4.35
2019-03-26T16:50:47.096Z,4.40
2019-03-26T16:55:52.472Z,4.34
2019-03-26T17:00:57.822Z,4.19
2019-03-26T17:06:03.183Z,4.04
2019-03-26T17:11:09.552Z,3.95
2019-03-26T17:16:14.924Z,3.89
2019-03-26T17:21:20.193Z,3.80
2019-03-26T17:26:25.513Z,3.80
2019-03-26T17:31:31.052Z,3.67
2019-03-26T17:36:36.351Z,3.64
2019-03-26T17:41:41.639Z,3.55
2019-03-26T17:46:47.172Z,3.51
2019-03-26T17:51:52.657Z,3.57
2019-03-26T17:56:58.206Z,3.64
2019-03-26T18:02:04.635Z,3.63
2019-03-26T18:07:10.245Z,3.65
2019-03-26T18:12:15.723Z,3.55
2019-03-26T18:17:21.175Z,3.48
2019-03-26T18:22:26.322Z,3.50
2019-03-26T18:27:31.469Z,3.50
2019-03-26T18:32:36.939Z,3.43
2019-03-26T18:37:42.403Z,3.43
2019-03-26T18:42:47.845Z,3.31
2019-03-26T18:47:53.223Z,3.35
2019-03-26T18:52:58.532Z,3.30
2019-03-26T18:58:04.539Z,3.36
2019-03-26T19:03:10.428Z,3.34
2019-03-26T19:08:15.681Z,3.31
2019-03-26T19:13:21.252Z,3.34
2019-03-26T19:18:27.807Z,3.34
2019-03-26T19:23:33.578Z,3.31
2019-03-26T19:28:39.340Z,3.36
2019-03-26T19:33:44.634Z,3.34
2019-03-26T19:38:50.371Z,3.26
2019-03-26T19:43:56.326Z,3.22
2019-03-26T19:49:01.513Z,3.12
2019-03-26T19:54:07.004Z,3.10
2019-03-26T19:59:12.457Z,3.13
2019-03-26T20:04:17.830Z,3.07
2019-03-26T20:09:23.197Z,2.95
2019-03-26T20:14:28.400Z,3.01
2019-03-26T20:19:34.017Z,2.97
2019-03-26T20:24:39.520Z,2.96
2019-03-26T20:29:44.666Z,2.90
2019-03-26T20:34:49.969Z,2.81
2019-03-26T20:39:55.293Z,2.84
2019-03-26T20:45:01.625Z,2.80
2019-03-26T20:50:08.756Z,2.75
2019-03-26T20:55:16.436Z,2.65
2019-03-26T21:00:30.581Z,2.58
2019-03-26T21:05:36.569Z,2.53
2019-03-26T21:10:41.921Z,2.44
2019-03-26T21:15:56.527Z,2.36
2019-03-26T21:20:54.360Z,2.23
2019-03-26T21:25:59.926Z,2.25
2019-03-26T21:31:05.188Z,2.17
2019-03-26T21:36:10.566Z,2.01
2019-03-26T21:41:15.903Z,1.99
2019-03-26T21:46:21.395Z,1.91
2019-03-26T21:51:26.629Z,1.83
2019-03-26T21:56:31.997Z,1.73
2019-03-26T22:01:37.339Z,1.65
2019-03-26T22:06:42.785Z,1.57
2019-03-26T22:11:50.099Z,1.57
2019-03-26T22:16:55.328Z,1.52
2019-03-26T22:22:00.509Z,1.41
2019-03-26T22:27:05.684Z,1.35
2019-03-26T22:32:11.139Z,1.37
2019-03-26T22:37:16.583Z,1.31
2019-03-26T22:42:21.852Z,1.35
2019-03-26T22:47:26.998Z,1.25
2019-03-26T22:52:32.476Z,1.28
2019-03-26T22:57:38.032Z,1.25
2019-03-26T23:02:43.484Z,1.19
2019-03-26T23:07:48.749Z,1.16
2019-03-26T23:12:54.009Z,1.12
2019-03-26T23:17:59.564Z,1.15
2019-03-26T23:23:04.952Z,1.11
2019-03-26T23:28:10.313Z,1.13
2019-03-26T23:33:15.739Z,1.13
2019-03-26T23:38:21.205Z,1.12
2019-03-26T23:43:27.798Z,1.16
2019-03-26T23:48:33.261Z,1.15
2019-03-26T23:53:38.505Z,1.16
2019-03-26T23:58:43.809Z,1.22
